sensor_id;sensor_type;location;lat;lon;timestamp;pressure;altitude;pressure_sealevel;temperature;humidity
63652;BME280;49801;37.536;-122.304;2023-01-28T00:00:20;101801.72;;;14.90;61.68
63652;BME280;49801;37.536;-122.304;2023-01-28T00:00:46;101800.72;;;14.91;61.59
63652;BME280;49801;37.536;-122.304;2023-01-28T00:01:14;101794.63;;;14.80;61.45
63652;BME280;49801;37.536;-122.304;2023-01-28T00:01:40;101798.34;;;14.88;61.56
63652;BME280;49801;37.536;-122.304;2023-01-28T00:02:06;101799.53;;;14.85;61.70
63652;BME280;49801;37.536;-122.304;2023-01-28T00:02:34;101800.75;;;14.82;61.80
63652;BME280;49801;37.536;-122.304;2023-01-28T00:03:00;101780.84;;;14.74;61.86
63652;BME280;49801;37.536;-122.304;2023-01-28T00:03:26;101804.13;;;14.85;61.90
63652;BME280;49801;37.536;-122.304;2023-01-28T00:03:52;101801.41;;;14.85;61.72
63652;BME280;49801;37.536;-122.304;2023-01-28T00:04:19;101743.22;;;14.44;61.86
63652;BME280;49801;37.536;-122.304;2023-01-28T00:04:45;101802.47;;;14.67;62.09
63652;BME280;49801;37.536;-122.304;2023-01-28T00:05:11;101799.44;;;14.62;62.17
63652;BME280;49801;37.536;-122.304;2023-01-28T00:05:37;101806.94;;;14.68;62.40
63652;BME280;49801;37.536;-122.304;2023-01-28T00:06:05;101796.53;;;14.72;62.42
63652;BME280;49801;37.536;-122.304;2023-01-28T00:06:32;101791.72;;;14.57;62.49
63652;BME280;49801;37.536;-122.304;2023-01-28T00:06:58;101804.19;;;14.52;62.96
63652;BME280;49801;37.536;-122.304;2023-01-28T00:07:24;101795.50;;;14.56;62.84
63652;BME280;49801;37.536;-122.304;2023-01-28T00:07:51;101799.06;;;14.49;63.06
63652;BME280;49801;37.536;-122.304;2023-01-28T00:08:17;101800.06;;;14.56;63.02
63652;BME280;49801;37.536;-122.304;2023-01-28T00:08:43;101753.47;;;14.26;62.78
63652;BME280;49801;37.536;-122.304;2023-01-28T00:09:10;101793.63;;;14.49;62.94
63652;BME280;49801;37.536;-122.304;2023-01-28T00:09:36;101798.41;;;14.55;62.83
63652;BME280;49801;37.536;-122.304;2023-01-28T00:10:04;101800.78;;;14.58;62.84
63652;BME280;49801;37.536;-122.304;2023-01-28T00:10:30;101812.34;;;14.52;62.88
63652;BME280;49801;37.536;-122.304;2023-01-28T00:11:00;101805.91;;;14.53;63.01
63652;BME280;49801;37.536;-122.304;2023-01-28T00:11:27;101809.97;;;14.49;62.91
63652;BME280;49801;37.536;-122.304;2023-01-28T00:11:53;101805.91;;;14.36;63.67
63652;BME280;49801;37.536;-122.304;2023-01-28T00:12:19;101804.56;;;14.24;63.61
63652;BME280;49801;37.536;-122.304;2023-01-28T00:12:45;101793.66;;;14.16;63.68
63652;BME280;49801;37.536;-122.304;2023-01-28T00:13:12;101802.16;;;14.13;63.79
63652;BME280;49801;37.536;-122.304;2023-01-28T00:13:39;101800.13;;;14.15;63.86
63652;BME280;49801;37.536;-122.304;2023-01-28T00:14:06;101785.47;;;14.07;64.07
63652;BME280;49801;37.536;-122.304;2023-01-28T00:14:33;101794.34;;;14.18;63.94
63652;BME280;49801;37.536;-122.304;2023-01-28T00:14:59;101791.59;;;14.10;64.06
63652;BME280;49801;37.536;-122.304;2023-01-28T00:15:25;101769.50;;;13.88;64.16
63652;BME280;49801;37.536;-122.304;2023-01-28T00:15:58;101791.59;;;13.85;64.49
63652;BME280;49801;37.536;-122.304;2023-01-28T00:16:26;101791.09;;;13.81;64.63
63652;BME280;49801;37.536;-122.304;2023-01-28T00:16:52;101785.47;;;13.75;64.88
63652;BME280;49801;37.536;-122.304;2023-01-28T00:17:18;101774.91;;;13.72;64.88
63652;BME280;49801;37.536;-122.304;2023-01-28T00:17:44;101784.78;;;13.64;64.87
63652;BME280;49801;37.536;-122.304;2023-01-28T00:18:11;101784.44;;;13.67;65.06
63652;BME280;49801;37.536;-122.304;2023-01-28T00:18:37;101790.88;;;13.66;65.23
63652;BME280;49801;37.536;-122.304;2023-01-28T00:19:03;101780.72;;;13.68;64.97
63652;BME280;49801;37.536;-122.304;2023-01-28T00:19:29;101781.19;;;13.56;65.25
63652;BME280;49801;37.536;-122.304;2023-01-28T00:19:56;101781.69;;;13.51;65.47
63652;BME280;49801;37.536;-122.304;2023-01-28T00:20:22;101782.03;;;13.56;65.44
63652;BME280;49801;37.536;-122.304;2023-01-28T00:21:07;101776.59;;;13.56;65.59
63652;BME280;49801;37.536;-122.304;2023-01-28T00:21:33;101771.13;;;13.40;65.65
63652;BME280;49801;37.536;-122.304;2023-01-28T00:21:59;101767.91;;;13.44;65.83
63652;BME280;49801;37.536;-122.304;2023-01-28T00:22:26;101764.28;;;13.36;65.90
63652;BME280;49801;37.536;-122.304;2023-01-28T00:22:52;101768.06;;;13.35;65.96
63652;BME280;49801;37.536;-122.304;2023-01-28T00:23:18;101763.56;;;13.25;66.12
63652;BME280;49801;37.536;-122.304;2023-01-28T00:23:51;101766.63;;;13.22;66.19
63652;BME280;49801;37.536;-122.304;2023-01-28T00:24:18;101778.19;;;13.24;65.91
63652;BME280;49801;37.536;-122.304;2023-01-28T00:24:45;101771.34;;;13.20;66.32
63652;BME280;49801;37.536;-122.304;2023-01-28T00:25:11;101738.00;;;13.02;66.37
63652;BME280;49801;37.536;-122.304;2023-01-28T00:25:37;101765.91;;;13.12;66.39
63652;BME280;49801;37.536;-122.304;2023-01-28T00:26:11;101759.78;;;13.10;66.58
63652;BME280;49801;37.536;-122.304;2023-01-28T00:26:38;101765.72;;;13.05;66.45
63652;BME280;49801;37.536;-122.304;2023-01-28T00:27:04;101752.13;;;13.05;66.55
63652;BME280;49801;37.536;-122.304;2023-01-28T00:27:30;101752.25;;;12.95;66.62
63652;BME280;49801;37.536;-122.304;2023-01-28T00:27:56;101761.97;;;12.98;66.69
63652;BME280;49801;37.536;-122.304;2023-01-28T00:28:22;101734.38;;;12.85;66.59
63652;BME280;49801;37.536;-122.304;2023-01-28T00:28:49;101756.97;;;12.85;66.59
63652;BME280;49801;37.536;-122.304;2023-01-28T00:29:15;101757.06;;;12.75;67.06
63652;BME280;49801;37.536;-122.304;2023-01-28T00:29:41;101730.66;;;12.60;67.08
63652;BME280;49801;37.536;-122.304;2023-01-28T00:30:09;101762.34;;;12.77;67.04
63652;BME280;49801;37.536;-122.304;2023-01-28T00:30:35;101744.94;;;12.62;67.31
63652;BME280;49801;37.536;-122.304;2023-01-28T00:31:11;101768.59;;;12.69;67.60
63652;BME280;49801;37.536;-122.304;2023-01-28T00:31:39;101766.69;;;12.62;67.73
63652;BME280;49801;37.536;-122.304;2023-01-28T00:32:05;101754.28;;;12.59;67.70
63652;BME280;49801;37.536;-122.304;2023-01-28T00:32:32;101749.44;;;12.71;67.50
63652;BME280;49801;37.536;-122.304;2023-01-28T00:32:58;101742.88;;;12.55;67.50
63652;BME280;49801;37.536;-122.304;2023-01-28T00:33:24;101761.91;;;12.55;67.79
63652;BME280;49801;37.536;-122.304;2023-01-28T00:33:51;101732.97;;;12.46;67.77
63652;BME280;49801;37.536;-122.304;2023-01-28T00:34:17;101747.97;;;12.50;67.96
63652;BME280;49801;37.536;-122.304;2023-01-28T00:34:44;101755.06;;;12.51;68.14
63652;BME280;49801;37.536;-122.304;2023-01-28T00:35:10;101750.50;;;12.52;67.95
63652;BME280;49801;37.536;-122.304;2023-01-28T00:35:36;101754.75;;;12.54;67.92
63652;BME280;49801;37.536;-122.304;2023-01-28T00:36:05;101752.72;;;12.56;67.93
63652;BME280;49801;37.536;-122.304;2023-01-28T00:36:32;101742.53;;;12.50;67.77
63652;BME280;49801;37.536;-122.304;2023-01-28T00:36:58;101751.66;;;12.49;67.81
63652;BME280;49801;37.536;-122.304;2023-01-28T00:37:24;101751.63;;;12.41;68.31
63652;BME280;49801;37.536;-122.304;2023-01-28T00:37:50;101749.56;;;12.35;68.60
63652;BME280;49801;37.536;-122.304;2023-01-28T00:38:17;101732.66;;;12.23;68.66
63652;BME280;49801;37.536;-122.304;2023-01-28T00:38:51;101756.66;;;12.36;68.75
63652;BME280;49801;37.536;-122.304;2023-01-28T00:39:17;101759.72;;;12.33;68.65
63652;BME280;49801;37.536;-122.304;2023-01-28T00:39:43;101752.53;;;12.24;68.94
63652;BME280;49801;37.536;-122.304;2023-01-28T00:40:10;101760.19;;;12.28;68.92
63652;BME280;49801;37.536;-122.304;2023-01-28T00:40:36;101742.94;;;12.11;69.34
63652;BME280;49801;37.536;-122.304;2023-01-28T00:41:08;101755.75;;;12.19;69.26
63652;BME280;49801;37.536;-122.304;2023-01-28T00:41:35;101756.94;;;12.25;69.21
63652;BME280;49801;37.536;-122.304;2023-01-28T00:42:02;101754.56;;;12.22;69.24
63652;BME280;49801;37.536;-122.304;2023-01-28T00:42:28;101754.78;;;12.28;69.02
63652;BME280;49801;37.536;-122.304;2023-01-28T00:42:54;101759.97;;;12.22;69.18
63652;BME280;49801;37.536;-122.304;2023-01-28T00:43:20;101716.38;;;11.97;69.45
63652;BME280;49801;37.536;-122.304;2023-01-28T00:43:47;101742.31;;;12.17;69.35
63652;BME280;49801;37.536;-122.304;2023-01-28T00:44:14;101750.31;;;12.19;69.32
63652;BME280;49801;37.536;-122.304;2023-01-28T00:44:40;101714.28;;;11.91;69.43
63652;BME280;49801;37.536;-122.304;2023-01-28T00:45:07;101740.16;;;12.03;69.35
63652;BME280;49801;37.536;-122.304;2023-01-28T00:45:33;101740.50;;;12.00;69.41
63652;BME280;49801;37.536;-122.304;2023-01-28T00:45:59;101730.25;;;11.94;69.63
63652;BME280;49801;37.536;-122.304;2023-01-28T00:46:25;101741.41;;;11.91;69.60
63652;BME280;49801;37.536;-122.304;2023-01-28T00:46:52;101735.06;;;12.00;69.19
63652;BME280;49801;37.536;-122.304;2023-01-28T00:47:18;101736.25;;;11.88;69.47
63652;BME280;49801;37.536;-122.304;2023-01-28T00:47:46;101736.97;;;11.90;69.55
63652;BME280;49801;37.536;-122.304;2023-01-28T00:48:12;101732.88;;;11.86;69.46
63652;BME280;49801;37.536;-122.304;2023-01-28T00:48:40;101732.03;;;11.85;69.47
63652;BME280;49801;37.536;-122.304;2023-01-28T00:49:07;101704.28;;;11.73;69.21
63652;BME280;49801;37.536;-122.304;2023-01-28T00:49:33;101724.81;;;11.94;69.16
63652;BME280;49801;37.536;-122.304;2023-01-28T00:49:59;101724.81;;;11.94;68.90
63652;BME280;49801;37.536;-122.304;2023-01-28T00:50:25;101722.50;;;11.99;68.85
63652;BME280;49801;37.536;-122.304;2023-01-28T00:50:52;101718.00;;;11.90;68.64
63652;BME280;49801;37.536;-122.304;2023-01-28T00:51:21;101725.13;;;11.91;68.63
63652;BME280;49801;37.536;-122.304;2023-01-28T00:51:47;101729.47;;;11.83;68.93
63652;BME280;49801;37.536;-122.304;2023-01-28T00:52:14;101724.72;;;11.86;69.04
63652;BME280;49801;37.536;-122.304;2023-01-28T00:52:40;101733.16;;;11.82;68.79
63652;BME280;49801;37.536;-122.304;2023-01-28T00:53:06;101727.75;;;11.82;68.88
63652;BME280;49801;37.536;-122.304;2023-01-28T00:53:32;101720.94;;;11.78;68.68
63652;BME280;49801;37.536;-122.304;2023-01-28T00:54:02;101725.53;;;11.78;68.75
63652;BME280;49801;37.536;-122.304;2023-01-28T00:54:28;101722.56;;;11.71;68.90
63652;BME280;49801;37.536;-122.304;2023-01-28T00:54:55;101730.88;;;11.70;69.35
63652;BME280;49801;37.536;-122.304;2023-01-28T00:55:21;101714.75;;;11.68;69.39
63652;BME280;49801;37.536;-122.304;2023-01-28T00:55:48;101721.88;;;11.69;69.05
63652;BME280;49801;37.536;-122.304;2023-01-28T00:56:16;101723.19;;;11.65;69.43
63652;BME280;49801;37.536;-122.304;2023-01-28T00:56:42;101721.41;;;11.56;69.85
63652;BME280;49801;37.536;-122.304;2023-01-28T00:57:09;101731.72;;;11.52;70.23
63652;BME280;49801;37.536;-122.304;2023-01-28T00:57:35;101711.09;;;11.41;70.23
63652;BME280;49801;37.536;-122.304;2023-01-28T00:58:01;101705.63;;;11.33;70.56
63652;BME280;49801;37.536;-122.304;2023-01-28T00:58:27;101731.78;;;11.42;70.49
63652;BME280;49801;37.536;-122.304;2023-01-28T00:58:53;101709.94;;;11.26;70.85
63652;BME280;49801;37.536;-122.304;2023-01-28T00:59:20;101717.25;;;11.43;70.74
63652;BME280;49801;37.536;-122.304;2023-01-28T00:59:46;101727.53;;;11.40;70.65
63652;BME280;49801;37.536;-122.304;2023-01-28T01:00:12;101727.31;;;11.33;71.07
63652;BME280;49801;37.536;-122.304;2023-01-28T01:00:38;101717.69;;;11.21;71.12
63652;BME280;49801;37.536;-122.304;2023-01-28T01:01:18;101723.13;;;11.21;71.22
63652;BME280;49801;37.536;-122.304;2023-01-28T01:01:44;101721.09;;;11.23;71.21
63652;BME280;49801;37.536;-122.304;2023-01-28T01:02:11;101703.75;;;11.16;71.17
63652;BME280;49801;37.536;-122.304;2023-01-28T01:02:37;101706.28;;;11.17;70.88
63652;BME280;49801;37.536;-122.304;2023-01-28T01:03:03;101722.03;;;11.32;70.67
63652;BME280;49801;37.536;-122.304;2023-01-28T01:03:29;101723.50;;;11.26;70.88
63652;BME280;49801;37.536;-122.304;2023-01-28T01:03:55;101717.69;;;11.21;71.16
63652;BME280;49801;37.536;-122.304;2023-01-28T01:04:27;101722.00;;;11.14;71.28
63652;BME280;49801;37.536;-122.304;2023-01-28T01:04:59;101721.81;;;10.97;71.64
63652;BME280;49801;37.536;-122.304;2023-01-28T01:05:26;101720.50;;;11.01;71.72
63652;BME280;49801;37.536;-122.304;2023-01-28T01:05:56;101719.81;;;10.99;71.86
63652;BME280;49801;37.536;-122.304;2023-01-28T01:06:24;101705.75;;;10.86;71.85
63652;BME280;49801;37.536;-122.304;2023-01-28T01:06:50;101710.19;;;10.87;71.83
63652;BME280;49801;37.536;-122.304;2023-01-28T01:07:16;101728.13;;;10.88;72.28
63652;BME280;49801;37.536;-122.304;2023-01-28T01:07:42;101727.84;;;10.91;71.94
63652;BME280;49801;37.536;-122.304;2023-01-28T01:08:08;101714.50;;;10.80;72.20
63652;BME280;49801;37.536;-122.304;2023-01-28T01:08:35;101723.03;;;10.85;72.13
63652;BME280;49801;37.536;-122.304;2023-01-28T01:09:06;101725.03;;;10.83;72.28
63652;BME280;49801;37.536;-122.304;2023-01-28T01:09:32;101729.75;;;10.81;72.37
63652;BME280;49801;37.536;-122.304;2023-01-28T01:10:00;101726.34;;;10.79;72.74
63652;BME280;49801;37.536;-122.304;2023-01-28T01:10:27;101731.34;;;10.74;72.82
63652;BME280;49801;37.536;-122.304;2023-01-28T01:10:57;101726.50;;;10.67;73.02
63652;BME280;49801;37.536;-122.304;2023-01-28T01:11:24;101726.84;;;10.64;73.11
63652;BME280;49801;37.536;-122.304;2023-01-28T01:11:50;101730.38;;;10.75;72.95
63652;BME280;49801;37.536;-122.304;2023-01-28T01:12:16;101729.03;;;10.79;72.74
63652;BME280;49801;37.536;-122.304;2023-01-28T01:12:44;101730.78;;;10.70;73.32
63652;BME280;49801;37.536;-122.304;2023-01-28T01:13:10;101735.44;;;10.78;72.73
63652;BME280;49801;37.536;-122.304;2023-01-28T01:13:37;101732.75;;;10.78;72.62
63652;BME280;49801;37.536;-122.304;2023-01-28T01:14:03;101715.09;;;10.74;72.78
63652;BME280;49801;37.536;-122.304;2023-01-28T01:14:31;101729.09;;;10.69;72.96
63652;BME280;49801;37.536;-122.304;2023-01-28T01:14:58;101730.25;;;10.66;73.20
63652;BME280;49801;37.536;-122.304;2023-01-28T01:15:25;101731.94;;;10.67;73.19
63652;BME280;49801;37.536;-122.304;2023-01-28T01:16:00;101721.69;;;10.71;72.96
63652;BME280;49801;37.536;-122.304;2023-01-28T01:16:29;101722.53;;;10.72;72.47
63652;BME280;49801;37.536;-122.304;2023-01-28T01:16:56;101724.22;;;10.73;72.66
63652;BME280;49801;37.536;-122.304;2023-01-28T01:17:23;101714.69;;;10.68;72.79
63652;BME280;49801;37.536;-122.304;2023-01-28T01:17:49;101723.09;;;10.65;72.58
63652;BME280;49801;37.536;-122.304;2023-01-28T01:18:15;101725.53;;;10.68;72.62
63652;BME280;49801;37.536;-122.304;2023-01-28T01:18:42;101718.31;;;10.59;72.72
63652;BME280;49801;37.536;-122.304;2023-01-28T01:19:08;101711.16;;;10.58;72.54
63652;BME280;49801;37.536;-122.304;2023-01-28T01:19:36;101725.38;;;10.70;72.76
63652;BME280;49801;37.536;-122.304;2023-01-28T01:20:04;101726.22;;;10.70;72.74
63652;BME280;49801;37.536;-122.304;2023-01-28T01:20:30;101725.94;;;10.74;72.84
63652;BME280;49801;37.536;-122.304;2023-01-28T01:20:58;101725.94;;;10.74;72.86
63652;BME280;49801;37.536;-122.304;2023-01-28T01:21:26;101669.63;;;10.40;72.71
63652;BME280;49801;37.536;-122.304;2023-01-28T01:21:53;101718.78;;;10.73;72.46
63652;BME280;49801;37.536;-122.304;2023-01-28T01:22:21;101731.34;;;10.74;72.49
63652;BME280;49801;37.536;-122.304;2023-01-28T01:22:47;101731.34;;;10.74;72.60
63652;BME280;49801;37.536;-122.304;2023-01-28T01:23:14;101727.94;;;10.72;72.65
63652;BME280;49801;37.536;-122.304;2023-01-28T01:23:40;101728.63;;;10.74;72.28
63652;BME280;49801;37.536;-122.304;2023-01-28T01:24:07;101735.06;;;10.73;72.49
63652;BME280;49801;37.536;-122.304;2023-01-28T01:24:33;101733.38;;;10.72;72.20
63652;BME280;49801;37.536;-122.304;2023-01-28T01:24:59;101726.22;;;10.70;72.17
63652;BME280;49801;37.536;-122.304;2023-01-28T01:25:25;101723.41;;;10.62;72.42
63652;BME280;49801;37.536;-122.304;2023-01-28T01:25:52;101674.63;;;10.35;72.43
63652;BME280;49801;37.536;-122.304;2023-01-28T01:26:18;101734.81;;;10.66;72.75
63652;BME280;49801;37.536;-122.304;2023-01-28T01:26:45;101730.25;;;10.66;72.34
63652;BME280;49801;37.536;-122.304;2023-01-28T01:27:11;101738.09;;;10.69;72.35
63652;BME280;49801;37.536;-122.304;2023-01-28T01:27:37;101704.66;;;10.51;72.60
63652;BME280;49801;37.536;-122.304;2023-01-28T01:28:03;101736.38;;;10.68;72.96
63652;BME280;49801;37.536;-122.304;2023-01-28T01:28:30;101731.94;;;10.67;72.63
63652;BME280;49801;37.536;-122.304;2023-01-28T01:28:56;101728.78;;;10.72;72.35
63652;BME280;49801;37.536;-122.304;2023-01-28T01:29:22;101730.78;;;10.70;72.14
63652;BME280;49801;37.536;-122.304;2023-01-28T01:29:48;101738.78;;;10.72;72.50
63652;BME280;49801;37.536;-122.304;2023-01-28T01:30:15;101723.50;;;10.70;72.44
63652;BME280;49801;37.536;-122.304;2023-01-28T01:30:41;101731.66;;;10.70;72.18
63652;BME280;49801;37.536;-122.304;2023-01-28T01:31:11;101734.97;;;10.64;72.31
63652;BME280;49801;37.536;-122.304;2023-01-28T01:31:38;101723.72;;;10.59;72.47
63652;BME280;49801;37.536;-122.304;2023-01-28T01:32:04;101697.09;;;10.45;72.36
63652;BME280;49801;37.536;-122.304;2023-01-28T01:32:31;101700.22;;;10.50;72.06
63652;BME280;49801;37.536;-122.304;2023-01-28T01:32:59;101727.72;;;10.55;72.33
63652;BME280;49801;37.536;-122.304;2023-01-28T01:33:27;101715.19;;;10.54;72.59
63652;BME280;49801;37.536;-122.304;2023-01-28T01:33:54;101716.03;;;10.55;72.51
63652;BME280;49801;37.536;-122.304;2023-01-28T01:34:20;101716.19;;;10.53;72.72
63652;BME280;49801;37.536;-122.304;2023-01-28T01:34:47;101700.97;;;10.52;72.15
63652;BME280;49801;37.536;-122.304;2023-01-28T01:35:14;101697.56;;;10.40;72.26
63652;BME280;49801;37.536;-122.304;2023-01-28T01:35:40;101715.06;;;10.46;72.75
63652;BME280;49801;37.536;-122.304;2023-01-28T01:36:07;101700.69;;;10.45;72.44
63652;BME280;49801;37.536;-122.304;2023-01-28T01:36:33;101700.22;;;10.50;72.67
63652;BME280;49801;37.536;-122.304;2023-01-28T01:36:59;101704.94;;;10.48;72.41
63652;BME280;49801;37.536;-122.304;2023-01-28T01:37:26;101694.88;;;10.40;72.53
63652;BME280;49801;37.536;-122.304;2023-01-28T01:37:52;101642.38;;;10.04;72.36
63652;BME280;49801;37.536;-122.304;2023-01-28T01:38:18;101699.88;;;10.35;72.64
63652;BME280;49801;37.536;-122.304;2023-01-28T01:38:45;101697.31;;;10.34;72.44
63652;BME280;49801;37.536;-122.304;2023-01-28T01:39:14;101658.31;;;10.07;72.33
63652;BME280;49801;37.536;-122.304;2023-01-28T01:39:40;101696.84;;;10.38;72.67
63652;BME280;49801;37.536;-122.304;2023-01-28T01:40:07;101696.16;;;10.36;72.08
63652;BME280;49801;37.536;-122.304;2023-01-28T01:40:34;101692.88;;;10.32;72.32
63652;BME280;49801;37.536;-122.304;2023-01-28T01:41:00;101694.31;;;10.37;72.27
63652;BME280;49801;37.536;-122.304;2023-01-28T01:41:29;101686.63;;;10.32;71.99
63652;BME280;49801;37.536;-122.304;2023-01-28T01:41:55;101688.31;;;10.33;71.87
63652;BME280;49801;37.536;-122.304;2023-01-28T01:42:23;101678.75;;;10.29;71.86
63652;BME280;49801;37.536;-122.304;2023-01-28T01:42:58;101664.56;;;10.17;71.23
63652;BME280;49801;37.536;-122.304;2023-01-28T01:43:43;101690.75;;;10.26;71.35
63652;BME280;49801;37.536;-122.304;2023-01-28T01:45:13;101695.03;;;10.19;71.41
63652;BME280;49801;37.536;-122.304;2023-01-28T01:45:42;101695.34;;;10.16;71.50
63652;BME280;49801;37.536;-122.304;2023-01-28T01:46:09;101692.47;;;10.18;71.51
63652;BME280;49801;37.536;-122.304;2023-01-28T01:47:01;101703.28;;;10.18;71.12
63652;BME280;49801;37.536;-122.304;2023-01-28T01:48:30;101704.19;;;10.08;71.46
63652;BME280;49801;37.536;-122.304;2023-01-28T01:48:56;101709.47;;;10.00;71.69
63652;BME280;49801;37.536;-122.304;2023-01-28T01:49:26;101710.47;;;9.99;71.50
63652;BME280;49801;37.536;-122.304;2023-01-28T01:49:53;101721.59;;;9.96;71.72
63652;BME280;49801;37.536;-122.304;2023-01-28T01:51:39;101707.06;;;9.87;71.18
63652;BME280;49801;37.536;-122.304;2023-01-28T01:52:11;101698.97;;;9.87;71.51
63652;BME280;49801;37.536;-122.304;2023-01-28T01:52:39;101690.84;;;9.87;71.21
63652;BME280;49801;37.536;-122.304;2023-01-28T01:53:16;101694.53;;;9.96;70.89
63652;BME280;49801;37.536;-122.304;2023-01-28T01:53:48;101660.09;;;9.79;70.84
63652;BME280;49801;37.536;-122.304;2023-01-28T01:54:16;101697.78;;;10.00;70.91
63652;BME280;49801;37.536;-122.304;2023-01-28T01:54:47;101695.09;;;10.00;70.75
63652;BME280;49801;37.536;-122.304;2023-01-28T01:55:17;101690.50;;;10.00;70.79
63652;BME280;49801;37.536;-122.304;2023-01-28T01:55:46;101687.94;;;9.99;70.47
63652;BME280;49801;37.536;-122.304;2023-01-28T01:56:16;101701.34;;;10.00;70.20
63652;BME280;49801;37.536;-122.304;2023-01-28T01:56:46;101698.78;;;9.99;69.82
63652;BME280;49801;37.536;-122.304;2023-01-28T01:57:21;101697.09;;;9.98;69.85
63652;BME280;49801;37.536;-122.304;2023-01-28T01:57:48;101700.50;;;10.00;69.68
63652;BME280;49801;37.536;-122.304;2023-01-28T01:58:20;101709.03;;;10.05;69.53
63652;BME280;49801;37.536;-122.304;2023-01-28T01:58:49;101704.47;;;10.05;69.42
63652;BME280;49801;37.536;-122.304;2023-01-28T01:59:22;101718.31;;;10.02;69.17
63652;BME280;49801;37.536;-122.304;2023-01-28T01:59:51;101711.31;;;10.00;69.13
63652;BME280;49801;37.536;-122.304;2023-01-28T02:00:17;101707.06;;;9.97;69.15
63652;BME280;49801;37.536;-122.304;2023-01-28T02:00:44;101700.50;;;10.00;68.93
63652;BME280;49801;37.536;-122.304;2023-01-28T02:01:11;101700.78;;;9.97;69.08
63652;BME280;49801;37.536;-122.304;2023-01-28T02:01:38;101698.22;;;9.95;68.93
63652;BME280;49801;37.536;-122.304;2023-01-28T02:02:06;101696.50;;;10.04;68.59
63652;BME280;49801;37.536;-122.304;2023-01-28T02:02:54;101698.22;;;10.05;68.69
63652;BME280;49801;37.536;-122.304;2023-01-28T02:03:27;101694.50;;;10.06;68.57
63652;BME280;49801;37.536;-122.304;2023-01-28T02:04:09;101687.66;;;10.02;68.48
63652;BME280;49801;37.536;-122.304;2023-01-28T02:04:42;101696.50;;;10.04;68.54
63652;BME280;49801;37.536;-122.304;2023-01-28T02:05:14;101704.59;;;10.04;68.65
63652;BME280;49801;37.536;-122.304;2023-01-28T02:05:40;101706.31;;;10.05;68.84
63652;BME280;49801;37.536;-122.304;2023-01-28T02:06:07;101695.50;;;10.05;68.56
63652;BME280;49801;37.536;-122.304;2023-01-28T02:06:34;101700.22;;;10.03;68.82
63652;BME280;49801;37.536;-122.304;2023-01-28T02:07:02;101701.91;;;10.04;68.85
63652;BME280;49801;37.536;-122.304;2023-01-28T02:07:28;101662.94;;;9.77;68.97
63652;BME280;49801;37.536;-122.304;2023-01-28T02:07:56;101699.38;;;10.02;68.89
63652;BME280;49801;37.536;-122.304;2023-01-28T02:08:44;101704.78;;;10.02;68.93
63652;BME280;49801;37.536;-122.304;2023-01-28T02:09:32;101701.34;;;10.00;68.91
63652;BME280;49801;37.536;-122.304;2023-01-28T02:10:04;101694.94;;;9.91;68.81
63652;BME280;49801;37.536;-122.304;2023-01-28T02:10:32;101703.63;;;9.95;69.15
63652;BME280;49801;37.536;-122.304;2023-01-28T02:11:02;101693.25;;;9.90;69.23
63652;BME280;49801;37.536;-122.304;2023-01-28T02:11:31;101697.66;;;9.91;69.49
63652;BME280;49801;37.536;-122.304;2023-01-28T02:12:47;101681.19;;;9.75;69.45
63652;BME280;49801;37.536;-122.304;2023-01-28T02:12:56;101679.75;;;9.81;69.35
63652;BME280;49801;37.536;-122.304;2023-01-28T02:13:27;101685.56;;;9.86;69.70
63652;BME280;49801;37.536;-122.304;2023-01-28T02:13:56;101696.53;;;9.84;69.55
63652;BME280;49801;37.536;-122.304;2023-01-28T02:14:27;101694.81;;;9.83;69.64
63652;BME280;49801;37.536;-122.304;2023-01-28T02:15:08;101679.47;;;9.74;69.44
63652;BME280;49801;37.536;-122.304;2023-01-28T02:15:35;101640.06;;;9.52;69.50
63652;BME280;49801;37.536;-122.304;2023-01-28T02:16:02;101682.88;;;9.76;69.41
63652;BME280;49801;37.536;-122.304;2023-01-28T02:16:30;101696.81;;;9.81;69.52
63652;BME280;49801;37.536;-122.304;2023-01-28T02:16:58;101689.72;;;9.80;69.77
63652;BME280;49801;37.536;-122.304;2023-01-28T02:17:25;101693.41;;;9.79;69.52
63652;BME280;49801;37.536;-122.304;2023-01-28T02:17:52;101688.28;;;9.76;69.67
63652;BME280;49801;37.536;-122.304;2023-01-28T02:18:18;101695.28;;;9.79;69.57
63652;BME280;49801;37.536;-122.304;2023-01-28T02:18:44;101695.97;;;9.81;69.54
63652;BME280;49801;37.536;-122.304;2023-01-28T02:19:11;101697.09;;;9.78;69.82
63652;BME280;49801;37.536;-122.304;2023-01-28T02:20:02;101687.16;;;9.79;69.60
63652;BME280;49801;37.536;-122.304;2023-01-28T02:24:53;101674.50;;;9.60;70.27
63652;BME280;49801;37.536;-122.304;2023-01-28T02:27:26;101658.41;;;9.38;72.05
63652;BME280;49801;37.536;-122.304;2023-01-28T02:28:21;101657.56;;;9.38;72.43
63652;BME280;49801;37.536;-122.304;2023-01-28T02:29:04;101655.16;;;9.35;72.40
63652;BME280;49801;37.536;-122.304;2023-01-28T02:29:55;101655.88;;;9.37;72.54
63652;BME280;49801;37.536;-122.304;2023-01-28T02:30:34;101656.16;;;9.34;72.75
63652;BME280;49801;37.536;-122.304;2023-01-28T02:31:14;101659.84;;;9.33;73.01
63652;BME280;49801;37.536;-122.304;2023-01-28T02:31:53;101663.56;;;9.32;72.98
63652;BME280;49801;37.536;-122.304;2023-01-28T02:32:59;101621.72;;;9.07;72.83
63652;BME280;49801;37.536;-122.304;2023-01-28T02:34:19;101656.56;;;9.19;73.10
63652;BME280;49801;37.536;-122.304;2023-01-28T02:35:16;101647.47;;;9.20;73.22